sensor_id;sensor_type;location;lat;lon;timestamp;P1;durP1;ratioP1;P2;durP2;ratioP2
6902;SDS011;20232;49.408;8.702;2023-02-28T05:02:04;6.60;;;5.83;;
6902;SDS011;20232;49.408;8.702;2023-02-28T05:04:33;7.73;;;6.83;;
6902;SDS011;20232;49.408;8.702;2023-02-28T05:07:00;8.80;;;6.00;;
6902;SDS011;20232;49.408;8.702;2023-02-28T05:09:26;6.93;;;6.23;;
6902;SDS011;20232;49.408;8.702;2023-02-28T05:11:52;6.83;;;6.23;;
6902;SDS011;20232;49.408;8.702;2023-02-28T05:14:17;7.20;;;6.53;;
6902;SDS011;20232;49.408;8.702;2023-02-28T05:16:43;6.77;;;6.07;;
6902;SDS011;20232;49.408;8.702;2023-02-28T05:19:08;7.60;;;6.20;;
6902;SDS011;20232;49.408;8.702;2023-02-28T05:21:35;6.60;;;6.00;;
6902;SDS011;20232;49.408;8.702;2023-02-28T05:24:06;9.63;;;6.40;;
6902;SDS011;20232;49.408;8.702;2023-02-28T05:26:35;7.90;;;6.20;;
6902;SDS011;20232;49.408;8.702;2023-02-28T05:29:02;7.33;;;6.20;;
6902;SDS011;20232;49.408;8.702;2023-02-28T05:31:28;7.20;;;6.50;;
6902;SDS011;20232;49.408;8.702;2023-02-28T05:33:53;7.17;;;6.10;;
6902;SDS011;20232;49.408;8.702;2023-02-28T05:36:21;7.47;;;5.90;;
6902;SDS011;20232;49.408;8.702;2023-02-28T05:38:48;7.00;;;6.30;;
6902;SDS011;20232;49.408;8.702;2023-02-28T05:41:14;6.80;;;6.10;;
6902;SDS011;20232;49.408;8.702;2023-02-28T05:43:40;7.10;;;6.40;;
6902;SDS011;20232;49.408;8.702;2023-02-28T05:46:06;6.83;;;6.10;;
6902;SDS011;20232;49.408;8.702;2023-02-28T05:48:35;8.47;;;6.67;;
6902;SDS011;20232;49.408;8.702;2023-02-28T05:51:01;7.53;;;6.50;;
6902;SDS011;20232;49.408;8.702;2023-02-28T05:53:27;7.23;;;5.93;;
6902;SDS011;20232;49.408;8.702;2023-02-28T05:55:53;7.27;;;6.47;;
6902;SDS011;20232;49.408;8.702;2023-02-28T05:58:19;7.27;;;6.40;;
6902;SDS011;20232;49.408;8.702;2023-02-28T06:00:45;7.70;;;6.20;;
6902;SDS011;20232;49.408;8.702;2023-02-28T06:03:11;6.63;;;6.10;;
6902;SDS011;20232;49.408;8.702;2023-02-28T06:05:37;6.37;;;5.80;;
6902;SDS011;20232;49.408;8.702;2023-02-28T06:08:03;6.80;;;6.10;;
6902;SDS011;20232;49.408;8.702;2023-02-28T06:10:30;8.10;;;6.37;;
6902;SDS011;20232;49.408;8.702;2023-02-28T06:12:59;6.70;;;6.10;;
6902;SDS011;20232;49.408;8.702;2023-02-28T06:15:25;7.43;;;6.47;;
6902;SDS011;20232;49.408;8.702;2023-02-28T06:17:51;7.97;;;6.77;;
6902;SDS011;20232;49.408;8.702;2023-02-28T06:20:17;7.90;;;6.73;;
6902;SDS011;20232;49.408;8.702;2023-02-28T06:22:42;7.60;;;6.83;;
6902;SDS011;20232;49.408;8.702;2023-02-28T06:25:08;7.60;;;6.27;;
6902;SDS011;20232;49.408;8.702;2023-02-28T06:27:35;8.03;;;6.53;;
6902;SDS011;20232;49.408;8.702;2023-02-28T06:30:00;8.47;;;6.50;;
6902;SDS011;20232;49.408;8.702;2023-02-28T06:32:26;8.50;;;6.60;;
6902;SDS011;20232;49.408;8.702;2023-02-28T06:34:52;8.57;;;6.63;;
6902;SDS011;20232;49.408;8.702;2023-02-28T06:37:18;7.03;;;6.30;;
6902;SDS011;20232;49.408;8.702;2023-02-28T06:39:43;7.87;;;6.50;;
6902;SDS011;20232;49.408;8.702;2023-02-28T06:42:09;7.50;;;6.70;;
6902;SDS011;20232;49.408;8.702;2023-02-28T06:44:35;8.50;;;7.40;;
6902;SDS011;20232;49.408;8.702;2023-02-28T06:47:01;8.07;;;7.27;;
6902;SDS011;20232;49.408;8.702;2023-02-28T06:49:31;10.97;;;8.23;;
6902;SDS011;20232;49.408;8.702;2023-02-28T06:51:57;10.80;;;8.33;;
6902;SDS011;20232;49.408;8.702;2023-02-28T06:54:23;10.30;;;7.87;;
6902;SDS011;20232;49.408;8.702;2023-02-28T06:56:49;8.60;;;7.53;;
6902;SDS011;20232;49.408;8.702;2023-02-28T06:59:15;8.80;;;7.50;;
6902;SDS011;20232;49.408;8.702;2023-02-28T07:01:41;7.97;;;7.17;;
6902;SDS011;20232;49.408;8.702;2023-02-28T07:04:07;8.40;;;7.10;;
6902;SDS011;20232;49.408;8.702;2023-02-28T07:06:33;9.43;;;7.33;;
6902;SDS011;20232;49.408;8.702;2023-02-28T07:08:59;7.93;;;6.73;;
6902;SDS011;20232;49.408;8.702;2023-02-28T07:11:25;8.07;;;7.13;;
6902;SDS011;20232;49.408;8.702;2023-02-28T07:13:53;8.77;;;7.20;;
6902;SDS011;20232;49.408;8.702;2023-02-28T07:16:21;9.50;;;6.90;;
6902;SDS011;20232;49.408;8.702;2023-02-28T07:18:48;8.77;;;7.27;;
6902;SDS011;20232;49.408;8.702;2023-02-28T07:21:13;7.83;;;7.03;;
6902;SDS011;20232;49.408;8.702;2023-02-28T07:23:39;11.30;;;8.17;;
6902;SDS011;20232;49.408;8.702;2023-02-28T07:26:06;7.80;;;7.00;;
6902;SDS011;20232;49.408;8.702;2023-02-28T07:28:36;11.80;;;8.07;;
6902;SDS011;20232;49.408;8.702;2023-02-28T07:31:04;10.63;;;7.93;;
6902;SDS011;20232;49.408;8.702;2023-02-28T07:33:30;9.00;;;7.53;;
6902;SDS011;20232;49.408;8.702;2023-02-28T07:36:00;8.47;;;7.10;;
6902;SDS011;20232;49.408;8.702;2023-02-28T07:38:30;9.23;;;7.37;;
6902;SDS011;20232;49.408;8.702;2023-02-28T07:40:56;10.27;;;8.10;;
6902;SDS011;20232;49.408;8.702;2023-02-28T07:43:21;9.67;;;7.47;;
6902;SDS011;20232;49.408;8.702;2023-02-28T07:45:47;8.37;;;7.00;;
6902;SDS011;20232;49.408;8.702;2023-02-28T07:48:12;8.30;;;7.33;;
6902;SDS011;20232;49.408;8.702;2023-02-28T07:50:38;9.10;;;7.43;;
6902;SDS011;20232;49.408;8.702;2023-02-28T07:53:03;8.70;;;7.80;;
6902;SDS011;20232;49.408;8.702;2023-02-28T07:55:29;9.87;;;7.37;;
6902;SDS011;20232;49.408;8.702;2023-02-28T07:57:56;8.87;;;7.50;;
6902;SDS011;20232;49.408;8.702;2023-02-28T08:00:22;8.43;;;7.63;;
6902;SDS011;20232;49.408;8.702;2023-02-28T08:02:48;8.37;;;7.57;;
6902;SDS011;20232;49.408;8.702;2023-02-28T08:05:14;8.47;;;7.30;;
6902;SDS011;20232;49.408;8.702;2023-02-28T08:07:39;9.13;;;7.63;;
6902;SDS011;20232;49.408;8.702;2023-02-28T08:10:05;9.27;;;7.40;;
6902;SDS011;20232;49.408;8.702;2023-02-28T08:12:31;7.87;;;7.17;;
6902;SDS011;20232;49.408;8.702;2023-02-28T08:14:57;7.93;;;7.10;;
6902;SDS011;20232;49.408;8.702;2023-02-28T08:17:23;8.23;;;7.33;;
6902;SDS011;20232;49.408;8.702;2023-02-28T08:19:48;8.17;;;7.37;;
6902;SDS011;20232;49.408;8.702;2023-02-28T08:22:14;8.83;;;7.57;;
6902;SDS011;20232;49.408;8.702;2023-02-28T08:24:43;8.47;;;7.63;;
6902;SDS011;20232;49.408;8.702;2023-02-28T08:27:09;8.00;;;7.20;;
6902;SDS011;20232;49.408;8.702;2023-02-28T08:29:39;8.77;;;7.37;;
6902;SDS011;20232;49.408;8.702;2023-02-28T08:32:05;7.60;;;6.90;;
6902;SDS011;20232;49.408;8.702;2023-02-28T08:34:32;7.80;;;7.00;;
6902;SDS011;20232;49.408;8.702;2023-02-28T08:36:57;9.90;;;7.23;;
6902;SDS011;20232;49.408;8.702;2023-02-28T08:39:23;7.63;;;6.93;;
6902;SDS011;20232;49.408;8.702;2023-02-28T08:41:48;8.43;;;7.43;;
6902;SDS011;20232;49.408;8.702;2023-02-28T08:44:14;8.67;;;7.00;;
6902;SDS011;20232;49.408;8.702;2023-02-28T08:46:39;7.87;;;7.07;;
6902;SDS011;20232;49.408;8.702;2023-02-28T08:49:05;9.10;;;7.10;;
6902;SDS011;20232;49.408;8.702;2023-02-28T08:51:32;9.50;;;7.30;;
6902;SDS011;20232;49.408;8.702;2023-02-28T08:53:58;8.17;;;7.37;;
6902;SDS011;20232;49.408;8.702;2023-02-28T08:56:25;10.10;;;7.97;;
6902;SDS011;20232;49.408;8.702;2023-02-28T08:58:54;8.40;;;7.50;;
6902;SDS011;20232;49.408;8.702;2023-02-28T09:01:25;8.10;;;7.17;;
6902;SDS011;20232;49.408;8.702;2023-02-28T09:03:52;8.63;;;7.27;;
6902;SDS011;20232;49.408;8.702;2023-02-28T09:06:18;9.87;;;8.00;;
6902;SDS011;20232;49.408;8.702;2023-02-28T09:08:45;7.77;;;6.97;;
6902;SDS011;20232;49.408;8.702;2023-02-28T09:11:11;9.13;;;7.37;;
6902;SDS011;20232;49.408;8.702;2023-02-28T09:13:37;9.67;;;7.47;;
6902;SDS011;20232;49.408;8.702;2023-02-28T09:16:04;8.57;;;7.50;;
6902;SDS011;20232;49.408;8.702;2023-02-28T09:18:31;7.30;;;6.60;;
6902;SDS011;20232;49.408;8.702;2023-02-28T09:20:58;8.83;;;6.27;;
6902;SDS011;20232;49.408;8.702;2023-02-28T09:23:24;8.47;;;6.87;;
6902;SDS011;20232;49.408;8.702;2023-02-28T09:25:51;7.40;;;6.00;;
6902;SDS011;20232;49.408;8.702;2023-02-28T09:28:19;8.13;;;6.70;;
6902;SDS011;20232;49.408;8.702;2023-02-28T09:30:47;8.60;;;7.07;;
6902;SDS011;20232;49.408;8.702;2023-02-28T09:33:17;10.47;;;7.90;;
6902;SDS011;20232;49.408;8.702;2023-02-28T09:35:45;7.77;;;6.60;;
6902;SDS011;20232;49.408;8.702;2023-02-28T09:38:14;7.10;;;6.40;;
6902;SDS011;20232;49.408;8.702;2023-02-28T09:40:50;7.73;;;6.93;;
6902;SDS011;20232;49.408;8.702;2023-02-28T09:43:20;9.13;;;6.93;;
6902;SDS011;20232;49.408;8.702;2023-02-28T09:45:52;8.30;;;6.77;;
6902;SDS011;20232;49.408;8.702;2023-02-28T09:48:33;10.07;;;7.30;;
6902;SDS011;20232;49.408;8.702;2023-02-28T09:51:03;8.53;;;7.13;;
6902;SDS011;20232;49.408;8.702;2023-02-28T09:53:50;7.40;;;6.70;;
6902;SDS011;20232;49.408;8.702;2023-02-28T09:56:19;8.03;;;7.23;;
6902;SDS011;20232;49.408;8.702;2023-02-28T09:59:01;8.00;;;7.00;;
6902;SDS011;20232;49.408;8.702;2023-02-28T10:01:37;8.20;;;7.17;;
6902;SDS011;20232;49.408;8.702;2023-02-28T10:04:42;7.97;;;7.27;;
6902;SDS011;20232;49.408;8.702;2023-02-28T10:07:10;7.90;;;7.10;;
6902;SDS011;20232;49.408;8.702;2023-02-28T10:09:45;7.80;;;6.50;;
6902;SDS011;20232;49.408;8.702;2023-02-28T10:12:14;8.87;;;6.97;;
6902;SDS011;20232;49.408;8.702;2023-02-28T10:14:41;8.33;;;6.87;;
6902;SDS011;20232;49.408;8.702;2023-02-28T10:17:17;7.53;;;6.77;;
6902;SDS011;20232;49.408;8.702;2023-02-28T10:22:48;7.70;;;6.90;;
6902;SDS011;20232;49.408;8.702;2023-02-28T10:25:23;7.67;;;6.83;;
6902;SDS011;20232;49.408;8.702;2023-02-28T10:27:54;7.73;;;6.77;;
6902;SDS011;20232;49.408;8.702;2023-02-28T10:30:26;9.03;;;7.03;;
6902;SDS011;20232;49.408;8.702;2023-02-28T10:32:53;8.00;;;7.20;;
6902;SDS011;20232;49.408;8.702;2023-02-28T10:35:23;10.73;;;7.30;;
6902;SDS011;20232;49.408;8.702;2023-02-28T10:37:51;8.80;;;7.50;;
6902;SDS011;20232;49.408;8.702;2023-02-28T10:43:04;7.90;;;6.97;;
6902;SDS011;20232;49.408;8.702;2023-02-28T10:45:34;13.70;;;8.63;;
6902;SDS011;20232;49.408;8.702;2023-02-28T10:50:42;10.43;;;7.23;;
6902;SDS011;20232;49.408;8.702;2023-02-28T10:53:25;7.90;;;7.10;;
6902;SDS011;20232;49.408;8.702;2023-02-28T10:58:44;11.30;;;7.40;;
6902;SDS011;20232;49.408;8.702;2023-02-28T11:01:15;8.53;;;6.93;;
6902;SDS011;20232;49.408;8.702;2023-02-28T11:03:43;7.63;;;6.93;;
6902;SDS011;20232;49.408;8.702;2023-02-28T11:06:13;10.67;;;8.30;;
6902;SDS011;20232;49.408;8.702;2023-02-28T11:08:47;7.67;;;6.87;;
6902;SDS011;20232;49.408;8.702;2023-02-28T11:11:44;8.23;;;7.27;;
6902;SDS011;20232;49.408;8.702;2023-02-28T11:14:22;8.63;;;7.47;;
6902;SDS011;20232;49.408;8.702;2023-02-28T11:16:51;8.67;;;7.27;;
6902;SDS011;20232;49.408;8.702;2023-02-28T11:19:29;8.87;;;7.93;;
6902;SDS011;20232;49.408;8.702;2023-02-28T11:22:01;7.60;;;6.67;;
6902;SDS011;20232;49.408;8.702;2023-02-28T11:24:35;8.97;;;7.93;;
6902;SDS011;20232;49.408;8.702;2023-02-28T11:27:05;10.27;;;7.67;;
6902;SDS011;20232;49.408;8.702;2023-02-28T11:29:49;7.80;;;6.97;;
6902;SDS011;20232;49.408;8.702;2023-02-28T11:32:21;11.13;;;8.30;;
6902;SDS011;20232;49.408;8.702;2023-02-28T11:34:59;9.83;;;8.20;;
6902;SDS011;20232;49.408;8.702;2023-02-28T11:37:39;8.93;;;7.83;;
6902;SDS011;20232;49.408;8.702;2023-02-28T11:40:14;9.93;;;7.43;;
6902;SDS011;20232;49.408;8.702;2023-02-28T11:42:55;11.03;;;8.60;;
6902;SDS011;20232;49.408;8.702;2023-02-28T11:45:36;11.13;;;8.67;;
6902;SDS011;20232;49.408;8.702;2023-02-28T11:48:21;10.63;;;8.17;;
6902;SDS011;20232;49.408;8.702;2023-02-28T11:53:32;10.43;;;7.83;;
6902;SDS011;20232;49.408;8.702;2023-02-28T11:56:06;9.57;;;8.10;;
6902;SDS011;20232;49.408;8.702;2023-02-28T12:01:45;9.97;;;7.70;;
6902;SDS011;20232;49.408;8.702;2023-02-28T12:05:10;10.80;;;8.00;;
6902;SDS011;20232;49.408;8.702;2023-02-28T12:07:42;8.73;;;7.83;;
6902;SDS011;20232;49.408;8.702;2023-02-28T12:10:44;9.13;;;8.23;;
6902;SDS011;20232;49.408;8.702;2023-02-28T12:16:28;10.83;;;8.53;;
6902;SDS011;20232;49.408;8.702;2023-02-28T12:19:10;13.30;;;8.37;;
6902;SDS011;20232;49.408;8.702;2023-02-28T12:21:50;10.57;;;8.40;;
6902;SDS011;20232;49.408;8.702;2023-02-28T12:24:33;9.13;;;8.23;;
6902;SDS011;20232;49.408;8.702;2023-02-28T12:27:00;14.67;;;9.07;;
6902;SDS011;20232;49.408;8.702;2023-02-28T12:29:32;13.77;;;8.83;;
6902;SDS011;20232;49.408;8.702;2023-02-28T12:32:16;13.57;;;9.20;;
6902;SDS011;20232;49.408;8.702;2023-02-28T12:34:52;11.33;;;8.37;;
6902;SDS011;20232;49.408;8.702;2023-02-28T12:37:29;11.17;;;8.70;;
6902;SDS011;20232;49.408;8.702;2023-02-28T12:40:05;11.30;;;7.67;;
6902;SDS011;20232;49.408;8.702;2023-02-28T12:42:44;9.00;;;8.20;;
6902;SDS011;20232;49.408;8.702;2023-02-28T12:45:24;8.93;;;8.03;;
6902;SDS011;20232;49.408;8.702;2023-02-28T12:47:54;9.07;;;8.10;;
6902;SDS011;20232;49.408;8.702;2023-02-28T12:50:27;8.97;;;7.97;;
6902;SDS011;20232;49.408;8.702;2023-02-28T12:53:03;9.43;;;7.80;;
6902;SDS011;20232;49.408;8.702;2023-02-28T13:01:36;10.53;;;8.80;;
6902;SDS011;20232;49.408;8.702;2023-02-28T13:06:14;9.90;;;8.90;;
6902;SDS011;20232;49.408;8.702;2023-02-28T13:09:08;12.23;;;10.67;;
6902;SDS011;20232;49.408;8.702;2023-02-28T13:14:20;11.53;;;10.10;;
6902;SDS011;20232;49.408;8.702;2023-02-28T13:17:02;12.53;;;10.67;;
6902;SDS011;20232;49.408;8.702;2023-02-28T13:19:29;12.13;;;9.53;;
6902;SDS011;20232;49.408;8.702;2023-02-28T13:21:57;10.87;;;9.70;;
6902;SDS011;20232;49.408;8.702;2023-02-28T13:29:39;11.43;;;9.80;;
6902;SDS011;20232;49.408;8.702;2023-02-28T13:34:33;10.60;;;9.40;;
6902;SDS011;20232;49.408;8.702;2023-02-28T13:39:51;10.43;;;9.40;;
6902;SDS011;20232;49.408;8.702;2023-02-28T13:47:30;12.07;;;10.03;;
6902;SDS011;20232;49.408;8.702;2023-02-28T14:01:16;10.30;;;9.23;;
6902;SDS011;20232;49.408;8.702;2023-02-28T14:06:39;12.10;;;9.77;;
6902;SDS011;20232;49.408;8.702;2023-02-28T14:11:56;9.37;;;7.90;;
6902;SDS011;20232;49.408;8.702;2023-02-28T14:17:04;10.40;;;9.30;;
6902;SDS011;20232;49.408;8.702;2023-02-28T14:19:37;10.13;;;8.90;;
6902;SDS011;20232;49.408;8.702;2023-02-28T14:38:27;9.60;;;8.60;;
6902;SDS011;20232;49.408;8.702;2023-02-28T14:40:56;11.07;;;9.30;;
6902;SDS011;20232;49.408;8.702;2023-02-28T14:43:26;10.40;;;9.40;;
6902;SDS011;20232;49.408;8.702;2023-02-28T14:46:02;9.80;;;8.80;;
6902;SDS011;20232;49.408;8.702;2023-02-28T14:48:30;10.77;;;9.03;;
6902;SDS011;20232;49.408;8.702;2023-02-28T14:50:57;11.77;;;9.73;;
6902;SDS011;20232;49.408;8.702;2023-02-28T14:53:26;9.73;;;8.73;;
6902;SDS011;20232;49.408;8.702;2023-02-28T14:55:54;9.80;;;8.87;;
6902;SDS011;20232;49.408;8.702;2023-02-28T14:58:24;10.20;;;9.20;;
6902;SDS011;20232;49.408;8.702;2023-02-28T15:00:54;9.67;;;8.67;;
6902;SDS011;20232;49.408;8.702;2023-02-28T15:05:58;10.57;;;8.90;;
6902;SDS011;20232;49.408;8.702;2023-02-28T15:08:29;9.50;;;8.50;;
6902;SDS011;20232;49.408;8.702;2023-02-28T15:11:01;9.33;;;8.43;;
6902;SDS011;20232;49.408;8.702;2023-02-28T15:13:50;10.93;;;9.17;;
6902;SDS011;20232;49.408;8.702;2023-02-28T15:16:20;9.70;;;8.67;;
6902;SDS011;20232;49.408;8.702;2023-02-28T15:18:55;11.13;;;8.53;;
6902;SDS011;20232;49.408;8.702;2023-02-28T15:21:38;9.43;;;8.50;;
6902;SDS011;20232;49.408;8.702;2023-02-28T15:24:07;9.80;;;8.90;;
6902;SDS011;20232;49.408;8.702;2023-02-28T15:26:56;9.63;;;8.63;;
6902;SDS011;20232;49.408;8.702;2023-02-28T15:29:25;9.30;;;8.40;;
6902;SDS011;20232;49.408;8.702;2023-02-28T15:31:56;10.67;;;8.93;;
6902;SDS011;20232;49.408;8.702;2023-02-28T15:34:29;11.80;;;8.93;;
6902;SDS011;20232;49.408;8.702;2023-02-28T15:37:00;10.40;;;8.80;;
6902;SDS011;20232;49.408;8.702;2023-02-28T15:39:27;9.37;;;8.37;;
6902;SDS011;20232;49.408;8.702;2023-02-28T15:42:16;11.30;;;8.60;;
6902;SDS011;20232;49.408;8.702;2023-02-28T15:44:44;11.03;;;9.30;;
6902;SDS011;20232;49.408;8.702;2023-02-28T15:47:23;9.80;;;8.87;;
6902;SDS011;20232;49.408;8.702;2023-02-28T15:49:56;9.60;;;8.57;;
6902;SDS011;20232;49.408;8.702;2023-02-28T15:52:26;9.17;;;8.27;;
6902;SDS011;20232;49.408;8.702;2023-02-28T15:55:16;10.87;;;8.50;;
6902;SDS011;20232;49.408;8.702;2023-02-28T15:57:43;9.20;;;8.30;;
6902;SDS011;20232;49.408;8.702;2023-02-28T16:00:12;9.97;;;8.93;;
6902;SDS011;20232;49.408;8.702;2023-02-28T16:02:40;9.47;;;8.37;;
6902;SDS011;20232;49.408;8.702;2023-02-28T16:07:38;10.20;;;9.10;;
6902;SDS011;20232;49.408;8.702;2023-02-28T16:10:05;10.60;;;9.50;;
6902;SDS011;20232;49.408;8.702;2023-02-28T16:12:33;9.77;;;8.77;;
6902;SDS011;20232;49.408;8.702;2023-02-28T16:15:01;10.00;;;9.00;;
6902;SDS011;20232;49.408;8.702;2023-02-28T16:17:33;11.53;;;8.80;;
6902;SDS011;20232;49.408;8.702;2023-02-28T16:20:00;9.20;;;8.30;;
6902;SDS011;20232;49.408;8.702;2023-02-28T16:22:26;10.30;;;9.13;;
6902;SDS011;20232;49.408;8.702;2023-02-28T16:24:51;9.97;;;8.53;;
6902;SDS011;20232;49.408;8.702;2023-02-28T16:29:55;9.87;;;8.80;;
6902;SDS011;20232;49.408;8.702;2023-02-28T16:32:20;9.90;;;8.90;;
6902;SDS011;20232;49.408;8.702;2023-02-28T16:34:46;12.23;;;10.07;;
6902;SDS011;20232;49.408;8.702;2023-02-28T16:37:12;10.50;;;9.07;;
6902;SDS011;20232;49.408;8.702;2023-02-28T16:39:40;10.13;;;9.13;;
6902;SDS011;20232;49.408;8.702;2023-02-28T16:42:07;10.63;;;9.30;;
6902;SDS011;20232;49.408;8.702;2023-02-28T16:44:40;10.23;;;9.23;;
6902;SDS011;20232;49.408;8.702;2023-02-28T16:47:06;10.50;;;9.20;;
6902;SDS011;20232;49.408;8.702;2023-02-28T16:49:34;10.60;;;9.50;;
6902;SDS011;20232;49.408;8.702;2023-02-28T16:52:00;12.63;;;9.00;;
6902;SDS011;20232;49.408;8.702;2023-02-28T16:54:25;11.30;;;9.13;;
6902;SDS011;20232;49.408;8.702;2023-02-28T16:56:51;10.40;;;9.40;;
6902;SDS011;20232;49.408;8.702;2023-02-28T16:59:18;10.93;;;9.23;;
6902;SDS011;20232;49.408;8.702;2023-02-28T17:01:48;10.23;;;9.20;;
6902;SDS011;20232;49.408;8.702;2023-02-28T17:04:14;11.03;;;9.83;;
6902;SDS011;20232;49.408;8.702;2023-02-28T17:06:40;9.87;;;8.83;;
6902;SDS011;20232;49.408;8.702;2023-02-28T17:09:08;11.03;;;9.70;;
6902;SDS011;20232;49.408;8.702;2023-02-28T17:11:42;12.67;;;9.60;;
6902;SDS011;20232;49.408;8.702;2023-02-28T17:14:07;12.43;;;9.50;;
6902;SDS011;20232;49.408;8.702;2023-02-28T17:16:33;10.97;;;9.70;;
6902;SDS011;20232;49.408;8.702;2023-02-28T17:19:01;19.17;;;14.70;;
6902;SDS011;20232;49.408;8.702;2023-02-28T17:21:28;13.10;;;11.40;;
6902;SDS011;20232;49.408;8.702;2023-02-28T17:23:54;12.00;;;10.20;;
6902;SDS011;20232;49.408;8.702;2023-02-28T17:26:21;16.23;;;13.03;;
6902;SDS011;20232;49.408;8.702;2023-02-28T17:28:49;14.07;;;12.37;;
6902;SDS011;20232;49.408;8.702;2023-02-28T17:31:16;21.50;;;16.60;;
6902;SDS011;20232;49.408;8.702;2023-02-28T17:33:43;20.50;;;14.03;;
6902;SDS011;20232;49.408;8.702;2023-02-28T17:36:15;13.23;;;10.70;;
6902;SDS011;20232;49.408;8.702;2023-02-28T17:38:46;19.73;;;14.80;;
6902;SDS011;20232;49.408;8.702;2023-02-28T17:41:12;18.77;;;14.33;;
6902;SDS011;20232;49.408;8.702;2023-02-28T17:43:38;14.13;;;12.33;;
6902;SDS011;20232;49.408;8.702;2023-02-28T17:46:04;12.50;;;9.63;;
6902;SDS011;20232;49.408;8.702;2023-02-28T17:48:30;12.33;;;10.10;;
6902;SDS011;20232;49.408;8.702;2023-02-28T17:50:56;15.63;;;10.43;;
6902;SDS011;20232;49.408;8.702;2023-02-28T17:53:22;15.37;;;12.47;;
6902;SDS011;20232;49.408;8.702;2023-02-28T17:55:48;15.73;;;12.73;;
6902;SDS011;20232;49.408;8.702;2023-02-28T17:58:15;12.20;;;10.47;;
6902;SDS011;20232;49.408;8.702;2023-02-28T18:00:40;12.07;;;9.80;;
6902;SDS011;20232;49.408;8.702;2023-02-28T18:03:06;13.67;;;10.47;;
6902;SDS011;20232;49.408;8.702;2023-02-28T18:05:33;17.77;;;14.10;;
6902;SDS011;20232;49.408;8.702;2023-02-28T18:07:58;20.30;;;13.70;;
6902;SDS011;20232;49.408;8.702;2023-02-28T18:10:25;15.07;;;12.07;;
6902;SDS011;20232;49.408;8.702;2023-02-28T18:12:52;12.90;;;11.60;;
6902;SDS011;20232;49.408;8.702;2023-02-28T18:15:19;13.27;;;10.70;;
6902;SDS011;20232;49.408;8.702;2023-02-28T18:17:46;16.90;;;11.63;;
6902;SDS011;20232;49.408;8.702;2023-02-28T18:20:13;13.73;;;11.13;;
6902;SDS011;20232;49.408;8.702;2023-02-28T18:22:39;12.73;;;10.80;;
6902;SDS011;20232;49.408;8.702;2023-02-28T18:25:06;13.03;;;11.33;;
6902;SDS011;20232;49.408;8.702;2023-02-28T18:27:33;12.10;;;10.60;;
6902;SDS011;20232;49.408;8.702;2023-02-28T18:30:00;14.23;;;11.00;;
6902;SDS011;20232;49.408;8.702;2023-02-28T18:32:26;14.90;;;10.07;;
6902;SDS011;20232;49.408;8.702;2023-02-28T18:34:53;14.23;;;11.33;;
6902;SDS011;20232;49.408;8.702;2023-02-28T18:37:19;14.03;;;10.73;;
6902;SDS011;20232;49.408;8.702;2023-02-28T18:39:44;12.47;;;10.27;;
6902;SDS011;20232;49.408;8.702;2023-02-28T18:42:10;14.27;;;11.63;;
6902;SDS011;20232;49.408;8.702;2023-02-28T18:44:36;11.20;;;10.00;;
6902;SDS011;20232;49.408;8.702;2023-02-28T18:47:02;11.60;;;9.70;;
6902;SDS011;20232;49.408;8.702;2023-02-28T18:49:28;11.77;;;10.03;;
6902;SDS011;20232;49.408;8.702;2023-02-28T18:51:55;12.37;;;9.97;;
6902;SDS011;20232;49.408;8.702;2023-02-28T18:54:22;12.30;;;10.53;;
6902;SDS011;20232;49.408;8.702;2023-02-28T18:56:48;13.67;;;10.53;;
6902;SDS011;20232;49.408;8.702;2023-02-28T18:59:14;13.73;;;10.00;;
6902;SDS011;20232;49.408;8.702;2023-02-28T19:01:40;10.73;;;9.47;;
6902;SDS011;20232;49.408;8.702;2023-02-28T19:04:06;10.77;;;9.67;;
6902;SDS011;20232;49.408;8.702;2023-02-28T19:06:35;11.37;;;10.10;;
6902;SDS011;20232;49.408;8.702;2023-02-28T19:09:02;11.23;;;10.03;;
6902;SDS011;20232;49.408;8.702;2023-02-28T19:11:28;10.77;;;9.63;;
6902;SDS011;20232;49.408;8.702;2023-02-28T19:13:54;12.67;;;10.20;;
6902;SDS011;20232;49.408;8.702;2023-02-28T19:16:21;15.37;;;10.40;;
6902;SDS011;20232;49.408;8.702;2023-02-28T19:18:48;12.23;;;10.07;;
6902;SDS011;20232;49.408;8.702;2023-02-28T19:21:14;11.20;;;10.07;;
6902;SDS011;20232;49.408;8.702;2023-02-28T19:23:41;12.27;;;9.40;;
6902;SDS011;20232;49.408;8.702;2023-02-28T19:26:08;12.20;;;10.30;;
6902;SDS011;20232;49.408;8.702;2023-02-28T19:28:39;11.60;;;10.30;;
6902;SDS011;20232;49.408;8.702;2023-02-28T19:31:09;11.87;;;10.30;;
6902;SDS011;20232;49.408;8.702;2023-02-28T19:33:37;11.63;;;10.43;;
6902;SDS011;20232;49.408;8.702;2023-02-28T19:36:03;11.93;;;10.30;;
6902;SDS011;20232;49.408;8.702;2023-02-28T19:38:28;11.40;;;9.93;;
6902;SDS011;20232;49.408;8.702;2023-02-28T19:40:58;13.03;;;10.07;;
6902;SDS011;20232;49.408;8.702;2023-02-28T19:43:25;10.87;;;9.73;;
6902;SDS011;20232;49.408;8.702;2023-02-28T19:45:51;11.83;;;10.40;;
6902;SDS011;20232;49.408;8.702;2023-02-28T19:48:16;13.00;;;10.80;;
6902;SDS011;20232;49.408;8.702;2023-02-28T19:50:42;13.87;;;11.23;;
6902;SDS011;20232;49.408;8.702;2023-02-28T19:53:07;12.83;;;10.17;;
6902;SDS011;20232;49.408;8.702;2023-02-28T19:55:33;13.63;;;10.40;;
6902;SDS011;20232;49.408;8.702;2023-02-28T19:58:01;13.37;;;11.07;;
6902;SDS011;20232;49.408;8.702;2023-02-28T20:00:27;11.57;;;10.10;;
6902;SDS011;20232;49.408;8.702;2023-02-28T20:02:52;13.23;;;10.77;;
6902;SDS011;20232;49.408;8.702;2023-02-28T20:05:18;12.23;;;10.30;;
6902;SDS011;20232;49.408;8.702;2023-02-28T20:07:43;12.50;;;9.53;;
6902;SDS011;20232;49.408;8.702;2023-02-28T20:10:09;11.13;;;9.77;;
6902;SDS011;20232;49.408;8.702;2023-02-28T20:12:35;12.93;;;10.50;;
6902;SDS011;20232;49.408;8.702;2023-02-28T20:15:01;11.67;;;9.73;;
6902;SDS011;20232;49.408;8.702;2023-02-28T20:17:27;13.53;;;10.70;;
6902;SDS011;20232;49.408;8.702;2023-02-28T20:19:52;10.80;;;9.43;;
6902;SDS011;20232;49.408;8.702;2023-02-28T20:22:18;11.40;;;9.97;;
6902;SDS011;20232;49.408;8.702;2023-02-28T20:24:45;13.87;;;10.40;;
6902;SDS011;20232;49.408;8.702;2023-02-28T20:27:11;11.37;;;9.80;;
6902;SDS011;20232;49.408;8.702;2023-02-28T20:29:36;12.50;;;10.33;;
6902;SDS011;20232;49.408;8.702;2023-02-28T20:32:02;11.03;;;9.83;;
6902;SDS011;20232;49.408;8.702;2023-02-28T20:34:28;12.90;;;10.20;;
6902;SDS011;20232;49.408;8.702;2023-02-28T20:36:53;12.60;;;9.73;;
6902;SDS011;20232;49.408;8.702;2023-02-28T20:39:20;14.07;;;11.07;;
6902;SDS011;20232;49.408;8.702;2023-02-28T20:41:46;15.10;;;10.80;;
6902;SDS011;20232;49.408;8.702;2023-02-28T20:44:12;11.97;;;9.80;;
6902;SDS011;20232;49.408;8.702;2023-02-28T20:46:38;13.00;;;10.23;;
6902;SDS011;20232;49.408;8.702;2023-02-28T20:49:05;11.90;;;10.53;;
6902;SDS011;20232;49.408;8.702;2023-02-28T20:51:31;12.03;;;10.00;;
6902;SDS011;20232;49.408;8.702;2023-02-28T20:53:56;10.13;;;8.83;;
6902;SDS011;20232;49.408;8.702;2023-02-28T20:56:22;11.47;;;9.20;;
6902;SDS011;20232;49.408;8.702;2023-02-28T20:58:49;11.93;;;8.57;;
6902;SDS011;20232;49.408;8.702;2023-02-28T21:01:21;10.80;;;9.10;;
6902;SDS011;20232;49.408;8.702;2023-02-28T21:04:00;10.23;;;8.97;;
6902;SDS011;20232;49.408;8.702;2023-02-28T21:06:31;10.27;;;8.77;;
6902;SDS011;20232;49.408;8.702;2023-02-28T21:09:03;9.87;;;8.87;;
6902;SDS011;20232;49.408;8.702;2023-02-28T21:11:31;9.50;;;8.33;;
6902;SDS011;20232;49.408;8.702;2023-02-28T21:14:10;9.40;;;8.10;;
6902;SDS011;20232;49.408;8.702;2023-02-28T21:16:39;9.37;;;8.20;;
6902;SDS011;20232;49.408;8.702;2023-02-28T21:19:05;10.33;;;8.67;;
6902;SDS011;20232;49.408;8.702;2023-02-28T21:21:34;9.43;;;8.47;;
6902;SDS011;20232;49.408;8.702;2023-02-28T21:24:11;9.80;;;8.83;;
6902;SDS011;20232;49.408;8.702;2023-02-28T21:26:39;11.27;;;8.63;;
6902;SDS011;20232;49.408;8.702;2023-02-28T21:29:06;14.03;;;9.17;;
6902;SDS011;20232;49.408;8.702;2023-02-28T21:31:32;10.97;;;8.60;;
6902;SDS011;20232;49.408;8.702;2023-02-28T21:33:59;11.90;;;9.03;;
6902;SDS011;20232;49.408;8.702;2023-02-28T21:36:27;10.53;;;9.47;;